createdAt,value
2022-09-07T00:00:06.499Z,96395.06
2022-09-07T00:02:33.667Z,96391.59
2022-09-07T00:05:00.791Z,96388.16
2022-09-07T00:07:27.918Z,96384.44
2022-09-07T00:09:55.013Z,96382.25
2022-09-07T00:12:22.131Z,96375.09
2022-09-07T00:14:49.250Z,96372.97
2022-09-07T00:17:16.451Z,96373.38
2022-09-07T00:19:43.631Z,96377.94
2022-09-07T00:22:10.711Z,96387.78
2022-09-07T00:24:37.911Z,96384.41
2022-09-07T00:27:05.192Z,96378.59
2022-09-07T00:29:32.331Z,96378.38
2022-09-07T00:31:59.430Z,96382.03
2022-09-07T00:34:26.532Z,96377.59
2022-09-07T00:36:53.691Z,96380.50
2022-09-07T00:39:20.851Z,96376.56
2022-09-07T00:41:48.131Z,96378.41
2022-09-07T00:44:43.079Z,96369.47
2022-09-07T00:47:18.310Z,96376.69
2022-09-07T00:49:49.330Z,96372.16
2022-09-07T00:52:19.332Z,96373.25
2022-09-07T00:54:49.420Z,96358.91
2022-09-07T00:57:16.730Z,96362.63
2022-09-07T00:59:48.154Z,96358.66
2022-09-07T01:02:17.602Z,96360.50
2022-09-07T01:04:48.710Z,96357.53
2022-09-07T01:07:15.890Z,96356.47
2022-09-07T01:09:45.532Z,96354.91
2022-09-07T01:12:12.658Z,96351.75
2022-09-07T01:14:50.731Z,96355.47
2022-09-07T01:17:36.238Z,96345.41
2022-09-07T01:20:40.213Z,96350.19
2022-09-07T01:23:19.511Z,96356.28
2022-09-07T01:26:23.650Z,96347.81
2022-09-07T01:29:16.374Z,96340.38
2022-09-07T01:32:05.650Z,96335.63
2022-09-07T01:34:32.950Z,96331.91
2022-09-07T01:37:15.299Z,96330.31
2022-09-07T01:39:45.341Z,96335.69
2022-09-07T01:42:18.112Z,96331.66
2022-09-07T01:44:56.731Z,96323.78
2022-09-07T01:47:49.833Z,96324.03
2022-09-07T01:50:56.091Z,96326.44
2022-09-07T01:53:50.944Z,96318.28
2022-09-07T01:56:33.850Z,96306.59
2022-09-07T01:59:09.891Z,96305.03
2022-09-07T02:01:50.498Z,96311.59
2022-09-07T02:04:28.211Z,96313.69
2022-09-07T02:07:46.291Z,96305.75
2022-09-07T02:10:27.171Z,96298.06
2022-09-07T02:13:02.214Z,96299.88
2022-09-07T02:15:43.541Z,96293.56
2022-09-07T02:18:14.166Z,96297.81
2022-09-07T02:20:48.599Z,96295.25
2022-09-07T02:23:24.350Z,96293.19
2022-09-07T02:25:59.333Z,96290.22
2022-09-07T02:28:33.282Z,96297.41
2022-09-07T02:31:00.962Z,96285.25
2022-09-07T02:33:29.330Z,96283.06
2022-09-07T02:35:57.718Z,96281.00
2022-09-07T02:38:26.052Z,96278.88
2022-09-07T02:40:59.270Z,96277.06
2022-09-07T02:43:28.073Z,96279.75
2022-09-07T02:46:23.639Z,96274.47
2022-09-07T02:49:12.314Z,96264.44
2022-09-07T02:51:52.231Z,96266.28
2022-09-07T02:54:45.590Z,96260.53
2022-09-07T02:57:44.270Z,96263.69
2022-09-07T03:00:18.211Z,96260.03
2022-09-07T03:02:52.710Z,96261.13
2022-09-07T03:05:24.958Z,96247.34
2022-09-07T03:08:04.398Z,96243.41
2022-09-07T03:10:32.130Z,96247.88
2022-09-07T03:12:59.213Z,96242.06
2022-09-07T03:15:28.130Z,96238.91
2022-09-07T03:17:55.398Z,96242.84
2022-09-07T03:20:23.371Z,96240.19
2022-09-07T03:22:52.815Z,96247.88
2022-09-07T03:25:20.299Z,96239.94
2022-09-07T03:27:47.352Z,96233.84
2022-09-07T03:30:14.799Z,96233.06
2022-09-07T03:32:41.970Z,96235.69
2022-09-07T03:35:09.710Z,96232.25
2022-09-07T03:37:37.512Z,96230.75
2022-09-07T03:40:10.037Z,96242.34
2022-09-07T03:42:38.270Z,96241.84
2022-09-07T03:45:06.890Z,96241.06
2022-09-07T03:47:35.609Z,96244.25
2022-09-07T03:50:03.471Z,96247.44
2022-09-07T03:52:30.592Z,96244.25
2022-09-07T03:54:57.890Z,96243.19
2022-09-07T03:57:25.010Z,96239.97
2022-09-07T03:59:52.070Z,96245.78
2022-09-07T04:02:19.614Z,96243.41
2022-09-07T04:04:46.792Z,96242.59
2022-09-07T04:07:14.690Z,96247.16
2022-09-07T04:09:42.173Z,96247.41
2022-09-07T04:12:09.370Z,96244.50
2022-09-07T04:14:36.444Z,96246.34
2022-09-07T04:17:03.803Z,96242.13
2022-09-07T04:19:31.253Z,96253.19
2022-09-07T04:21:58.373Z,96246.13
2022-09-07T04:24:25.533Z,96246.13
2022-09-07T04:26:52.776Z,96242.22
2022-09-07T04:29:19.853Z,96246.44
2022-09-07T04:31:46.995Z,96243.75
2022-09-07T04:34:14.866Z,96247.69
2022-09-07T04:36:41.904Z,96250.06
2022-09-07T04:39:10.313Z,96255.31
2022-09-07T04:41:37.642Z,96258.94
2022-09-07T04:44:05.417Z,96250.53
2022-09-07T04:46:35.267Z,96252.59
2022-09-07T04:49:08.878Z,96257.94
2022-09-07T04:51:37.803Z,96257.69
2022-09-07T04:57:00.135Z,96255.81
2022-09-07T04:59:27.344Z,96264.44
2022-09-07T05:01:54.430Z,96263.53
2022-09-07T05:04:21.563Z,96262.13
2022-09-07T05:06:48.632Z,96267.63
2022-09-07T05:09:15.642Z,96263.91
2022-09-07T05:11:43.215Z,96272.63
2022-09-07T05:14:10.572Z,96273.34
2022-09-07T05:16:37.718Z,96271.91
2022-09-07T05:19:05.555Z,96282.44
2022-09-07T05:21:34.327Z,96282.09
2022-09-07T05:24:02.617Z,96280.47
2022-09-07T05:26:31.702Z,96279.88
2022-09-07T05:31:50.068Z,96277.84
2022-09-07T05:34:33.420Z,96286.22
2022-09-07T05:37:01.718Z,96284.81
2022-09-07T05:39:29.246Z,96292.13
2022-09-07T05:41:57.063Z,96282.50
2022-09-07T05:47:11.701Z,96290.31
2022-09-07T05:49:38.850Z,96293.16
2022-09-07T05:52:06.033Z,96288.88
2022-09-07T05:54:33.136Z,96281.84
2022-09-07T05:57:00.155Z,96275.56
2022-09-07T05:59:27.304Z,96276.41
2022-09-07T06:01:54.519Z,96278.91
2022-09-07T06:04:21.616Z,96291.53
2022-09-07T06:07:17.603Z,96283.97
2022-09-07T06:09:35.928Z,96277.47
2022-09-07T06:12:05.683Z,96272.84
2022-09-07T06:14:34.032Z,96273.06
2022-09-07T06:17:01.234Z,96279.28
2022-09-07T06:19:28.313Z,96283.78
2022-09-07T06:21:55.423Z,96280.81
2022-09-07T06:24:22.591Z,96278.28
2022-09-07T06:26:49.614Z,96282.72
2022-09-07T06:29:16.792Z,96278.88
2022-09-07T06:34:31.195Z,96291.50
2022-09-07T06:36:59.237Z,96289.44
2022-09-07T06:39:26.303Z,96285.56
2022-09-07T06:42:00.699Z,96300.44
2022-09-07T06:44:31.274Z,96298.50
2022-09-07T06:49:28.700Z,96296.50
2022-09-07T06:51:55.795Z,96311.38
2022-09-07T06:57:10.261Z,96301.09
2022-09-07T06:59:38.510Z,96298.31
2022-09-07T07:02:07.169Z,96303.53
2022-09-07T07:04:40.259Z,96310.09
2022-09-07T07:07:12.641Z,96303.28
2022-09-07T07:09:41.361Z,96310.94
2022-09-07T07:12:08.733Z,96314.16
2022-09-07T07:14:39.754Z,96311.53
2022-09-07T07:17:08.423Z,96305.03
2022-09-07T07:19:35.440Z,96307.25
2022-09-07T07:22:18.343Z,96302.44
2022-09-07T07:24:49.557Z,96306.25
2022-09-07T07:27:16.873Z,96299.59
2022-09-07T07:29:43.914Z,96305.28
2022-09-07T07:32:10.992Z,96303.56
2022-09-07T07:34:38.104Z,96305.00
2022-09-07T07:37:05.344Z,96302.56
2022-09-07T07:42:21.214Z,96307.00
2022-09-07T07:44:48.822Z,96316.13
2022-09-07T07:47:15.921Z,96313.31
2022-09-07T07:49:42.999Z,96320.22
2022-09-07T07:54:57.153Z,96325.19
2022-09-07T07:57:24.382Z,96329.44
2022-09-07T07:59:51.432Z,96330.03
2022-09-07T08:02:18.703Z,96328.63
2022-09-07T08:04:45.853Z,96327.06
2022-09-07T08:07:12.996Z,96329.91
2022-09-07T08:09:44.653Z,96324.91
2022-09-07T08:12:14.153Z,96332.28
2022-09-07T08:14:41.895Z,96332.28
2022-09-07T08:17:14.254Z,96328.84
2022-09-07T08:19:41.612Z,96334.34
2022-09-07T08:22:09.986Z,96333.75
2022-09-07T08:24:36.993Z,96331.69
2022-09-07T08:27:04.593Z,96325.88
2022-09-07T08:29:34.566Z,96328.53
2022-09-07T08:32:04.213Z,96335.31
2022-09-07T08:34:31.471Z,96327.44
2022-09-07T08:36:58.556Z,96329.00
2022-09-07T08:39:25.645Z,96330.53
2022-09-07T08:42:21.722Z,96326.44
2022-09-07T08:45:04.673Z,96320.31
2022-09-07T08:47:51.593Z,96320.59
2022-09-07T08:50:42.113Z,96321.69
2022-09-07T08:53:14.355Z,96312.38
2022-09-07T08:55:52.054Z,96311.84
2022-09-07T08:58:49.565Z,96310.72
2022-09-07T09:01:35.711Z,96303.56
2022-09-07T09:06:11.039Z,96313.91
2022-09-07T09:07:15.374Z,96312.91
2022-09-07T09:09:53.772Z,96309.72
2022-09-07T09:12:48.833Z,96310.63
2022-09-07T09:15:18.274Z,96297.84
2022-09-07T09:17:53.613Z,96297.59
2022-09-07T09:20:46.703Z,96301.78
2022-09-07T09:23:16.276Z,96299.66
2022-09-07T09:25:52.456Z,96297.22
2022-09-07T09:28:19.823Z,96294.38
2022-09-07T09:30:50.507Z,96300.38
2022-09-07T09:33:29.145Z,96289.53
2022-09-07T09:35:59.913Z,96289.53
2022-09-07T09:38:32.782Z,96284.38
2022-09-07T09:41:07.332Z,96281.91
2022-09-07T09:43:55.014Z,96286.66
2022-09-07T09:46:29.294Z,96280.81
2022-09-07T09:49:17.635Z,96278.13
2022-09-07T09:54:49.046Z,96276.03
2022-09-07T09:57:17.285Z,96280.03
2022-09-07T10:00:03.880Z,96277.31
2022-09-07T10:05:34.422Z,96272.09
2022-09-07T10:08:02.173Z,96272.56
2022-09-07T10:10:30.083Z,96271.00
2022-09-07T10:12:57.615Z,96277.22
2022-09-07T10:15:40.555Z,96274.03
2022-09-07T10:18:21.476Z,96271.13
2022-09-07T10:20:49.062Z,96265.97
2022-09-07T10:23:24.260Z,96259.34
2022-09-07T10:25:51.432Z,96260.97
2022-09-07T10:28:25.150Z,96256.19
2022-09-07T10:31:16.628Z,96253.44
2022-09-07T10:37:01.635Z,96254.16
2022-09-07T10:39:35.960Z,96248.13
2022-09-07T10:42:09.220Z,96243.09
2022-09-07T10:45:10.893Z,96236.47
2022-09-07T10:47:37.888Z,96239.72
2022-09-07T10:50:27.161Z,96232.75
2022-09-07T10:52:54.040Z,96233.78
2022-09-07T10:55:29.132Z,96233.88
2022-09-07T10:59:01.555Z,96230.13
2022-09-07T11:13:30.335Z,96214.75
2022-09-07T11:16:01.590Z,96213.81
2022-09-07T11:18:38.953Z,96208.22
2022-09-07T11:21:13.510Z,96202.88
2022-09-07T11:23:45.452Z,96212.25
2022-09-07T11:26:23.612Z,96209.56
2022-09-07T11:31:57.495Z,96202.44
2022-09-07T11:35:07.781Z,96207.03
2022-09-07T11:37:48.653Z,96207.28
2022-09-07T11:40:35.433Z,96208.25
2022-09-07T11:43:20.335Z,96203.81
2022-09-07T11:45:54.225Z,96193.53
2022-09-07T11:48:30.846Z,96192.88
2022-09-07T11:51:10.733Z,96189.13
2022-09-07T11:53:44.572Z,96195.84
2022-09-07T11:56:22.272Z,96204.00
2022-09-07T11:59:10.521Z,96202.84
2022-09-07T12:02:08.236Z,96199.44
2022-09-07T12:04:56.923Z,96196.81
2022-09-07T12:07:35.842Z,96190.31
2022-09-07T12:10:27.093Z,96187.69
2022-09-07T12:13:09.193Z,96186.97
2022-09-07T12:16:07.536Z,96174.66
2022-09-07T12:19:05.432Z,96174.34
2022-09-07T12:21:41.474Z,96162.72
2022-09-07T12:24:33.192Z,96165.78
2022-09-07T12:27:02.098Z,96159.59
2022-09-07T12:29:30.756Z,96164.63
2022-09-07T12:32:52.841Z,96155.72
2022-09-07T12:34:54.031Z,96161.16
2022-09-07T12:37:27.034Z,96164.59
2022-09-07T12:40:30.718Z,96162.66
2022-09-07T12:43:13.231Z,96160.97
2022-09-07T12:45:40.225Z,96167.09
2022-09-07T12:48:16.118Z,96175.75
2022-09-07T12:50:52.113Z,96177.09
2022-09-07T12:53:37.452Z,96179.53
2022-09-07T12:56:22.713Z,96175.94
2022-09-07T12:59:19.853Z,96172.44
2022-09-07T13:01:47.285Z,96165.53
2022-09-07T13:04:43.843Z,96161.81
2022-09-07T13:07:38.601Z,96162.75
2022-09-07T13:10:37.044Z,96166.75
2022-09-07T13:13:15.376Z,96158.34
2022-09-07T13:16:17.637Z,96163.34
2022-09-07T13:18:46.574Z,96155.81
2022-09-07T13:21:15.204Z,96157.50
2022-09-07T13:23:45.501Z,96155.97
2022-09-07T13:26:33.632Z,96163.81
2022-09-07T13:29:11.052Z,96175.31
2022-09-07T13:31:46.872Z,96181.34
2022-09-07T13:34:32.178Z,96190.16
2022-09-07T13:37:00.873Z,96198.94
2022-09-07T13:39:30.223Z,96181.91
2022-09-07T13:42:00.554Z,96175.16
2022-09-07T13:44:33.135Z,96194.50
2022-09-07T13:47:14.175Z,96205.66
2022-09-07T13:49:53.721Z,96239.91
2022-09-07T13:52:38.859Z,96242.00
2022-09-07T13:55:25.942Z,96261.47
2022-09-07T13:58:04.229Z,96251.47
2022-09-07T14:00:31.500Z,96249.97
2022-09-07T14:03:05.184Z,96235.66
2022-09-07T14:05:32.109Z,96233.59
2022-09-07T14:07:59.169Z,96256.13
2022-09-07T14:10:26.930Z,96317.22
2022-09-07T14:13:05.771Z,96354.66
2022-09-07T14:15:39.491Z,96382.16
2022-09-07T14:18:12.662Z,96384.19
2022-09-07T14:20:52.141Z,96370.63
2022-09-07T14:23:21.767Z,96336.34
2022-09-07T14:28:38.050Z,96323.03
2022-09-07T14:31:08.772Z,96336.34
2022-09-07T14:33:36.000Z,96356.03
2022-09-07T14:36:23.227Z,96367.59
2022-09-07T14:39:07.255Z,96366.31
2022-09-07T14:41:38.633Z,96363.34
2022-09-07T14:44:06.656Z,96370.44
2022-09-07T14:46:34.557Z,96370.44
2022-09-07T14:49:15.442Z,96370.06
2022-09-07T14:51:44.564Z,96371.75
2022-09-07T14:54:34.247Z,96351.56
2022-09-07T14:57:26.249Z,96338.75
2022-09-07T14:59:54.078Z,96322.88
2022-09-07T15:02:27.283Z,96317.56
2022-09-07T15:05:20.959Z,96320.81
2022-09-07T15:07:53.269Z,96319.75
2022-09-07T15:10:23.875Z,96323.25
2022-09-07T15:12:54.750Z,96314.28
2022-09-07T15:15:26.234Z,96309.25
2022-09-07T15:18:05.821Z,96307.97
2022-09-07T15:20:43.401Z,96293.78
2022-09-07T15:23:15.522Z,96286.59
2022-09-07T15:25:49.669Z,96272.88
2022-09-07T15:34:12.169Z,96275.53
2022-09-07T15:36:41.849Z,96277.41
2022-09-07T15:39:17.074Z,96263.53
2022-09-07T15:41:44.869Z,96258.78
2022-09-07T15:44:13.737Z,96243.44
2022-09-07T15:46:42.099Z,96254.00
2022-09-07T15:49:10.312Z,96258.72
2022-09-07T15:54:35.283Z,96262.44
2022-09-07T15:59:50.979Z,96271.63
2022-09-07T16:05:08.948Z,96270.38
2022-09-07T16:10:23.250Z,96261.78
2022-09-07T16:13:10.928Z,96262.00
2022-09-07T16:15:46.491Z,96258.53
2022-09-07T16:18:17.319Z,96271.72
2022-09-07T16:20:45.154Z,96278.03
2022-09-07T16:23:14.912Z,96270.75
2022-09-07T16:25:54.539Z,96285.84
2022-09-07T16:28:21.557Z,96287.31
2022-09-07T16:30:48.681Z,96290.25
2022-09-07T16:33:15.676Z,96290.25
2022-09-07T16:35:42.958Z,96274.50
2022-09-07T16:40:58.098Z,96259.75
2022-09-07T16:43:25.499Z,96264.44
2022-09-07T16:46:06.580Z,96270.97
2022-09-07T16:48:35.518Z,96282.91
2022-09-07T16:51:05.789Z,96290.38
2022-09-07T16:53:35.279Z,96294.31
2022-09-07T16:56:10.651Z,96278.94
2022-09-07T16:58:43.305Z,96286.75
2022-09-07T17:01:12.955Z,96290.50
2022-09-07T17:03:40.394Z,96284.97
2022-09-07T17:06:10.215Z,96289.78
2022-09-07T17:08:38.880Z,96281.38
2022-09-07T17:11:08.733Z,96282.44
2022-09-07T17:13:37.512Z,96280.59
2022-09-07T17:16:10.752Z,96286.38
2022-09-07T17:21:29.816Z,96275.94
2022-09-07T17:23:56.840Z,96277.81
2022-09-07T17:26:28.055Z,96274.66
2022-09-07T17:29:00.334Z,96278.31
2022-09-07T17:34:21.220Z,96276.03
2022-09-07T17:36:49.192Z,96274.75
2022-09-07T17:39:18.191Z,96267.16
2022-09-07T17:41:52.637Z,96265.09
2022-09-07T17:44:21.270Z,96264.31
2022-09-07T17:46:48.403Z,96253.28
2022-09-07T17:49:17.020Z,96248.66
2022-09-07T17:51:45.769Z,96243.03
2022-09-07T17:54:15.968Z,96233.59
2022-09-07T17:56:44.411Z,96222.78
2022-09-07T18:01:59.241Z,96207.91
2022-09-07T18:04:26.320Z,96210.44
2022-09-07T18:06:54.681Z,96205.13
2022-09-07T18:09:22.196Z,96207.81
2022-09-07T18:11:50.076Z,96204.38
2022-09-07T18:14:18.570Z,96208.00
2022-09-07T18:16:47.843Z,96216.28
2022-09-07T18:19:16.164Z,96216.28
2022-09-07T18:21:44.130Z,96216.66
2022-09-07T18:24:17.147Z,96214.13
2022-09-07T18:26:50.132Z,96217.75
2022-09-07T18:29:36.811Z,96214.44
2022-09-07T18:32:09.534Z,96206.91
2022-09-07T18:34:40.636Z,96208.19
2022-09-07T18:37:08.819Z,96200.09
2022-09-07T18:39:36.798Z,96193.44
2022-09-07T18:42:04.712Z,96201.13
2022-09-07T18:47:27.822Z,96202.09
2022-09-07T18:49:57.152Z,96199.63
2022-09-07T18:55:11.599Z,96211.16
2022-09-07T18:57:38.809Z,96204.28
2022-09-07T19:00:09.174Z,96200.25
2022-09-07T19:02:36.959Z,96199.34
2022-09-07T19:07:51.643Z,96197.34
2022-09-07T19:10:18.800Z,96198.47
2022-09-07T19:12:46.389Z,96200.34
2022-09-07T19:15:14.056Z,96192.03
2022-09-07T19:17:41.119Z,96196.59
2022-09-07T19:20:08.504Z,96199.84
2022-09-07T19:22:35.469Z,96201.81
2022-09-07T19:25:02.419Z,96201.72
2022-09-07T19:27:29.411Z,96192.06
2022-09-07T19:29:56.379Z,96194.44
2022-09-07T19:32:23.480Z,96194.81
2022-09-07T19:34:54.655Z,96200.72
2022-09-07T19:37:26.171Z,96200.34
2022-09-07T19:39:56.919Z,96192.56
2022-09-07T19:42:25.105Z,96197.00
2022-09-07T19:44:53.130Z,96190.72
2022-09-07T19:47:21.128Z,96184.72
2022-09-07T19:49:48.101Z,96186.19
2022-09-07T19:52:15.620Z,96194.91
2022-09-07T19:54:42.650Z,96193.66
2022-09-07T19:57:09.630Z,96184.41
2022-09-07T19:59:36.499Z,96171.13
2022-09-07T20:02:03.499Z,96169.06
2022-09-07T20:04:30.739Z,96172.19
2022-09-07T20:06:57.830Z,96168.47
2022-09-07T20:09:25.963Z,96166.50
2022-09-07T20:11:52.773Z,96169.84
2022-09-07T20:14:20.120Z,96165.69
2022-09-07T20:16:47.116Z,96169.47
2022-09-07T20:19:15.027Z,96157.84
2022-09-07T20:21:42.725Z,96155.78
2022-09-07T20:24:11.943Z,96151.56
2022-09-07T20:26:38.941Z,96144.28
2022-09-07T20:29:26.200Z,96143.84
2022-09-07T20:31:54.472Z,96147.56
2022-09-07T20:34:21.569Z,96149.16
2022-09-07T20:36:52.099Z,96151.31
2022-09-07T20:39:19.208Z,96155.03
2022-09-07T20:41:46.824Z,96158.59
2022-09-07T20:44:14.465Z,96157.78
2022-09-07T20:46:41.922Z,96161.53
2022-09-07T20:49:09.751Z,96158.75
2022-09-07T20:51:36.674Z,96148.63
2022-09-07T20:54:03.910Z,96155.81
2022-09-07T20:56:31.143Z,96159.34
2022-09-07T20:59:02.628Z,96148.81
2022-09-07T21:01:31.687Z,96148.03
2022-09-07T21:04:00.851Z,96155.50
2022-09-07T21:06:29.057Z,96160.41
2022-09-07T21:08:57.384Z,96159.34
2022-09-07T21:11:26.846Z,96155.88
2022-09-07T21:13:58.582Z,96161.75
2022-09-07T21:16:26.587Z,96158.19
2022-09-07T21:18:56.040Z,96155.47
2022-09-07T21:21:25.161Z,96147.53
2022-09-07T21:24:00.181Z,96132.84
2022-09-07T21:26:28.582Z,96126.47
2022-09-07T21:29:00.903Z,96129.50
2022-09-07T21:31:30.056Z,96130.19
2022-09-07T21:33:59.320Z,96150.19
2022-09-07T21:36:27.006Z,96134.09
2022-09-07T21:38:54.540Z,96132.78
2022-09-07T21:41:23.712Z,96123.53
2022-09-07T21:43:55.642Z,96127.22
2022-09-07T21:46:22.934Z,96119.16
2022-09-07T21:48:50.470Z,96122.09
2022-09-07T21:51:18.700Z,96114.94
2022-09-07T21:53:45.580Z,96119.72
2022-09-07T21:56:15.378Z,96110.50
2022-09-07T21:58:43.806Z,96114.81
2022-09-07T22:01:18.131Z,96123.06
2022-09-07T22:03:54.842Z,96134.94
2022-09-07T22:06:22.121Z,96127.00
2022-09-07T22:08:50.343Z,96129.72
2022-09-07T22:11:20.500Z,96117.34
2022-09-07T22:13:47.601Z,96111.00
2022-09-07T22:16:15.479Z,96098.63
2022-09-07T22:18:46.150Z,96098.22
2022-09-07T22:21:16.451Z,96104.16
2022-09-07T22:23:46.638Z,96107.38
2022-09-07T22:26:14.603Z,96096.06
2022-09-07T22:28:41.991Z,96094.56
2022-09-07T22:31:08.955Z,96093.00
2022-09-07T22:33:35.950Z,96097.22
2022-09-07T22:36:33.101Z,96096.16
2022-09-07T22:39:02.440Z,96089.00
2022-09-07T22:41:32.580Z,96091.34
2022-09-07T22:43:59.864Z,96092.13
2022-09-07T22:46:29.125Z,96084.19
2022-09-07T22:48:57.862Z,96085.25
2022-09-07T22:51:25.439Z,96082.59
2022-09-07T22:53:53.180Z,96068.28
2022-09-07T22:56:25.581Z,96076.31
2022-09-07T22:58:55.199Z,96078.44
2022-09-07T23:01:22.401Z,96072.69
2022-09-07T23:03:50.248Z,96069.53
2022-09-07T23:06:26.407Z,96065.06
2022-09-07T23:08:55.719Z,96057.72
2022-09-07T23:11:24.477Z,96062.31
2022-09-07T23:13:59.141Z,96050.63
2022-09-07T23:16:28.029Z,96050.13
2022-09-07T23:18:57.460Z,96050.50
2022-09-07T23:21:26.399Z,96050.78
2022-09-07T23:23:55.879Z,96050.53
2022-09-07T23:26:24.300Z,96044.75
2022-09-07T23:28:56.090Z,96050.06
2022-09-07T23:31:24.799Z,96053.56
2022-09-07T23:33:52.272Z,96046.91
2022-09-07T23:36:20.000Z,96033.16
2022-09-07T23:38:47.700Z,96036.69
2022-09-07T23:41:15.901Z,96030.16
2022-09-07T23:43:42.739Z,96026.16
2022-09-07T23:46:10.833Z,96019.78
2022-09-07T23:48:37.861Z,96018.22
2022-09-07T23:51:05.541Z,96019.28
2022-09-07T23:53:33.407Z,96017.44
2022-09-07T23:56:01.130Z,96020.63
2022-09-07T23:58:28.096Z,96025.06
